createdAt,value
2018-02-20T00:00:01.711Z,12.8
2018-02-20T00:01:01.601Z,12.8
2018-02-20T00:02:01.547Z,12.6
2018-02-20T00:03:01.433Z,13.2
2018-02-20T00:04:01.369Z,12.4
2018-02-20T00:05:01.341Z,12.8
2018-02-20T00:06:01.381Z,13
2018-02-20T00:07:01.342Z,13
2018-02-20T00:08:01.219Z,12.9
2018-02-20T00:09:01.304Z,12.6
2018-02-20T00:10:01.117Z,13
2018-02-20T00:11:00.972Z,12.5
2018-02-20T00:12:00.901Z,12.6
2018-02-20T00:13:00.740Z,13.2
2018-02-20T00:14:00.734Z,12.9
2018-02-20T00:15:00.602Z,12.8
2018-02-20T00:16:00.582Z,13.1
2018-02-20T00:17:00.492Z,12.5
2018-02-20T00:18:00.442Z,12.9
2018-02-20T00:19:00.423Z,12.6
2018-02-20T00:20:00.308Z,12.7
2018-02-20T00:21:00.259Z,13.2
2018-02-20T00:22:00.124Z,13.1
2018-02-20T00:23:00.100Z,12.9
2018-02-20T00:24:00.027Z,12.9
2018-02-20T00:25:00.203Z,12.9
2018-02-20T00:25:59.909Z,13.1
2018-02-20T00:26:59.943Z,12.4
2018-02-20T00:27:59.709Z,12.8
2018-02-20T00:28:59.795Z,13.1
2018-02-20T00:29:59.861Z,12.9
2018-02-20T00:30:59.686Z,13.1
2018-02-20T00:31:59.479Z,12.8
2018-02-20T00:32:59.666Z,13.1
2018-02-20T00:33:59.292Z,12.9
2018-02-20T00:34:59.380Z,13.2
2018-02-20T00:35:59.247Z,12.9
2018-02-20T00:36:59.424Z,13.1
2018-02-20T00:37:59.123Z,13.1
2018-02-20T00:38:58.951Z,12.8
2018-02-20T00:39:58.914Z,12.8
2018-02-20T00:40:59.153Z,12.7
2018-02-20T00:41:58.836Z,12.4
2018-02-20T00:42:58.724Z,12.6
2018-02-20T00:43:58.611Z,13.1
2018-02-20T00:44:58.821Z,12.8
2018-02-20T00:45:58.620Z,12.9
2018-02-20T00:46:58.403Z,13
2018-02-20T00:47:58.778Z,12.9
2018-02-20T00:48:58.274Z,12.8
2018-02-20T00:49:58.235Z,12.7
2018-02-20T00:50:58.124Z,13.2
2018-02-20T00:51:58.237Z,12.9
2018-02-20T00:52:58.140Z,12.6
2018-02-20T00:53:58.258Z,13
2018-02-20T00:54:57.942Z,12.7
2018-02-20T00:55:57.796Z,13
2018-02-20T00:56:57.724Z,12.7
2018-02-20T00:57:57.687Z,12.6
2018-02-20T00:58:57.624Z,13.2
2018-02-20T00:59:57.506Z,13.1
2018-02-20T01:00:57.435Z,13
2018-02-20T01:01:57.411Z,13.1
2018-02-20T01:02:57.454Z,12.7
2018-02-20T01:03:57.341Z,12.6
2018-02-20T01:04:57.261Z,13.1
2018-02-20T01:05:57.092Z,13.1
2018-02-20T01:06:57.173Z,12.6
2018-02-20T01:07:57.403Z,12.4
2018-02-20T01:08:56.881Z,13
2018-02-20T01:09:57.189Z,13
2018-02-20T01:10:56.788Z,12.4
2018-02-20T01:11:56.693Z,12.9
2018-02-20T01:12:56.661Z,12.8
2018-02-20T01:13:56.544Z,12.8
2018-02-20T01:14:56.516Z,13
2018-02-20T01:15:56.687Z,12.5
2018-02-20T01:16:56.427Z,13.1
2018-02-20T01:17:56.703Z,13.1
2018-02-20T01:18:56.524Z,12.7
2018-02-20T01:19:56.281Z,12.6
2018-02-20T01:20:56.361Z,12.6
2018-02-20T01:21:55.987Z,12.6
2018-02-20T01:22:55.960Z,13
2018-02-20T01:23:55.902Z,12.9
2018-02-20T01:24:55.966Z,12.6
2018-02-20T01:25:55.887Z,12.8
2018-02-20T01:26:56.033Z,12.7
2018-02-20T01:27:55.687Z,13.1
2018-02-20T01:28:55.657Z,13.1
2018-02-20T01:29:55.433Z,12.8
2018-02-20T01:30:55.737Z,12.7
2018-02-20T01:31:55.360Z,12.8
2018-02-20T01:32:55.234Z,13.1
2018-02-20T01:33:55.315Z,12.6
2018-02-20T01:34:55.135Z,12.9
2018-02-20T01:35:55.111Z,13.1
2018-02-20T01:36:54.987Z,12.5
2018-02-20T01:37:54.935Z,12.8
2018-02-20T01:38:54.916Z,13.2
2018-02-20T01:39:54.790Z,12.5
2018-02-20T01:40:54.676Z,12.5
2018-02-20T01:41:54.611Z,12.8
2018-02-20T01:42:54.587Z,12.9
2018-02-20T01:43:54.491Z,12.7
2018-02-20T01:44:54.880Z,12.9
2018-02-20T01:45:54.330Z,13.1
2018-02-20T01:46:54.307Z,12.5
2018-02-20T01:47:54.526Z,12.9
2018-02-20T01:48:54.214Z,12.9
2018-02-20T01:49:54.098Z,13
2018-02-20T01:50:54.148Z,12.6
2018-02-20T01:51:54.007Z,13.1
2018-02-20T01:52:53.901Z,13
2018-02-20T01:53:53.788Z,13.1
2018-02-20T01:54:53.771Z,12.5
2018-02-20T01:55:53.981Z,12.6
2018-02-20T01:56:53.577Z,13.1
2018-02-20T01:57:53.510Z,12.7
2018-02-20T01:58:53.498Z,12.6
2018-02-20T01:59:53.458Z,12.6
2018-02-20T02:00:53.641Z,12.4
2018-02-20T02:01:53.569Z,13.1
2018-02-20T02:02:53.162Z,13.1
2018-02-20T02:03:53.189Z,13.1
2018-02-20T02:04:53.135Z,12.8
2018-02-20T02:05:53.104Z,12.4
2018-02-20T02:06:52.970Z,13
2018-02-20T02:07:52.842Z,13.1
2018-02-20T02:08:53.066Z,13.2
2018-02-20T02:09:52.771Z,12.5
2018-02-20T02:10:52.645Z,13.1
2018-02-20T02:11:52.584Z,13
2018-02-20T02:12:52.508Z,13
2018-02-20T02:13:52.698Z,12.9
2018-02-20T02:14:52.428Z,12.7
2018-02-20T02:15:52.285Z,13.1
2018-02-20T02:16:52.246Z,13.1
2018-02-20T02:17:52.455Z,13
2018-02-20T02:18:52.062Z,12.8
2018-02-20T02:19:52.046Z,13.1
2018-02-20T02:20:52.367Z,13.1
2018-02-20T02:21:52.010Z,13.1
2018-02-20T02:22:51.939Z,13.2
2018-02-20T02:23:51.852Z,12.7
2018-02-20T02:24:51.726Z,13
2018-02-20T02:25:51.620Z,13.2
2018-02-20T02:26:51.597Z,12.9
2018-02-20T02:27:51.582Z,12.4
2018-02-20T02:28:51.521Z,12.7
2018-02-20T02:29:51.346Z,13
2018-02-20T02:30:51.384Z,13
2018-02-20T02:31:51.202Z,13
2018-02-20T02:32:51.118Z,13.2
2018-02-20T02:33:51.066Z,13.1
2018-02-20T02:34:51.111Z,12.6
2018-02-20T02:35:51.166Z,12.8
2018-02-20T02:36:50.874Z,13
2018-02-20T02:37:50.754Z,12.7
2018-02-20T02:38:51.018Z,13
2018-02-20T02:39:50.653Z,13.2
2018-02-20T02:40:50.796Z,13
2018-02-20T02:41:50.771Z,12.9
2018-02-20T02:42:50.560Z,12.6
2018-02-20T02:43:50.332Z,13.1
2018-02-20T02:44:50.421Z,12.7
2018-02-20T02:45:50.409Z,13.2
2018-02-20T02:46:50.178Z,12.7
2018-02-20T02:47:50.078Z,12.6
2018-02-20T02:48:50.035Z,13.1
2018-02-20T02:49:50.251Z,13.2
2018-02-20T02:50:49.898Z,12.6
2018-02-20T02:51:49.930Z,12.6
2018-02-20T02:52:49.719Z,13.2
2018-02-20T02:53:49.745Z,12.4
2018-02-20T02:54:49.628Z,12.6
2018-02-20T02:55:49.527Z,12.7
2018-02-20T02:56:49.476Z,12.9
2018-02-20T02:57:49.406Z,12.5
2018-02-20T02:58:49.451Z,13.1
2018-02-20T02:59:49.389Z,13.1
2018-02-20T03:00:49.165Z,12.6
2018-02-20T03:01:49.238Z,13.1
2018-02-20T03:02:49.074Z,13
2018-02-20T03:03:48.979Z,12.4
2018-02-20T03:04:48.919Z,13
2018-02-20T03:05:49.107Z,12.6
2018-02-20T03:06:48.786Z,13.2
2018-02-20T03:07:48.723Z,12.6
2018-02-20T03:08:48.762Z,12.6
2018-02-20T03:09:48.583Z,13.2
2018-02-20T03:10:48.516Z,13.1
2018-02-20T03:11:48.421Z,13
2018-02-20T03:12:48.352Z,13.1
2018-02-20T03:13:48.370Z,12.8
2018-02-20T03:14:48.241Z,13.1
2018-02-20T03:15:48.474Z,13.1
2018-02-20T03:16:48.151Z,13.1
2018-02-20T03:17:48.028Z,13.1
2018-02-20T03:18:48.408Z,13.2
2018-02-20T03:19:47.891Z,13
2018-02-20T03:20:47.841Z,13.1
2018-02-20T03:21:47.711Z,12.6
2018-02-20T03:22:47.644Z,13.1
2018-02-20T03:23:47.622Z,12.8
2018-02-20T03:24:47.664Z,12.6
2018-02-20T03:25:47.589Z,13.2
2018-02-20T03:26:47.703Z,12.5
2018-02-20T03:27:47.317Z,12.9
2018-02-20T03:28:47.385Z,13.1
2018-02-20T03:29:47.500Z,12.9
2018-02-20T03:30:47.135Z,12.7
2018-02-20T03:31:47.022Z,12.5
2018-02-20T03:32:47.004Z,13
2018-02-20T03:33:46.886Z,12.7
2018-02-20T03:34:46.972Z,12.7
2018-02-20T03:35:46.907Z,13.2
2018-02-20T03:36:47.012Z,12.5
2018-02-20T03:37:46.613Z,12.9
2018-02-20T03:38:46.600Z,12.9
2018-02-20T03:39:46.644Z,12.6
2018-02-20T03:40:46.565Z,12.8
2018-02-20T03:41:46.485Z,12.9
2018-02-20T03:42:46.328Z,13
2018-02-20T03:43:46.303Z,13.2
2018-02-20T03:44:46.167Z,13.2
2018-02-20T03:45:46.224Z,12.6
2018-02-20T03:46:46.083Z,13
2018-02-20T03:47:46.267Z,13.1
2018-02-20T03:48:45.853Z,12.7
2018-02-20T03:49:45.943Z,12.8
2018-02-20T03:50:46.162Z,12.6
2018-02-20T03:51:45.686Z,13
2018-02-20T03:52:45.692Z,13
2018-02-20T03:53:45.554Z,13.1
2018-02-20T03:54:45.532Z,13.1
2018-02-20T03:55:45.524Z,13
2018-02-20T03:56:45.635Z,13
2018-02-20T03:57:45.382Z,13
2018-02-20T03:58:45.160Z,13.2
2018-02-20T03:59:45.150Z,12.5
2018-02-20T04:00:45.063Z,13.1
2018-02-20T04:01:45.103Z,12.7
2018-02-20T04:02:44.942Z,12.6
2018-02-20T04:03:44.954Z,13
2018-02-20T04:04:44.803Z,12.8
2018-02-20T04:05:44.678Z,13.1
2018-02-20T04:06:44.955Z,12.4
2018-02-20T04:07:45.038Z,13.1
2018-02-20T04:08:44.532Z,13.1
2018-02-20T04:09:44.441Z,13
2018-02-20T04:10:44.338Z,12.5
2018-02-20T04:11:44.361Z,13.1
2018-02-20T04:12:44.588Z,13
2018-02-20T04:13:44.163Z,12.6
2018-02-20T04:14:44.151Z,12.9
2018-02-20T04:15:44.425Z,12.7
2018-02-20T04:16:43.970Z,12.9
2018-02-20T04:17:44.111Z,13.1
2018-02-20T04:18:44.122Z,12.5
2018-02-20T04:19:43.750Z,12.9
2018-02-20T04:20:43.798Z,12.6
2018-02-20T04:21:43.625Z,12.4
2018-02-20T04:22:43.502Z,12.8
2018-02-20T04:23:43.471Z,13.1
2018-02-20T04:24:43.396Z,12.4
2018-02-20T04:25:43.342Z,12.9
2018-02-20T04:26:43.386Z,12.6
2018-02-20T04:27:43.157Z,13
2018-02-20T04:28:43.129Z,13.1
2018-02-20T04:29:43.066Z,13.1
2018-02-20T04:30:43.102Z,12.7
2018-02-20T04:31:43.042Z,12.7
2018-02-20T04:32:42.836Z,12.8
2018-02-20T04:33:42.900Z,13
2018-02-20T04:34:42.717Z,13
2018-02-20T04:35:42.607Z,12.7
2018-02-20T04:36:42.586Z,12.5
2018-02-20T04:37:42.471Z,12.7
2018-02-20T04:38:42.569Z,12.5
2018-02-20T04:39:42.685Z,13.2
2018-02-20T04:40:42.273Z,13
2018-02-20T04:41:42.364Z,12.9
2018-02-20T04:42:42.172Z,12.6
2018-02-20T04:43:42.099Z,12.8
2018-02-20T04:44:42.619Z,12.4
2018-02-20T04:45:42.071Z,12.8
2018-02-20T04:46:41.940Z,12.9
2018-02-20T04:47:41.938Z,13.1
2018-02-20T04:48:41.926Z,12.6
2018-02-20T04:49:41.695Z,12.9
2018-02-20T04:50:41.911Z,13.1
2018-02-20T04:51:41.844Z,12.5
2018-02-20T04:52:41.483Z,13
2018-02-20T04:53:41.415Z,12.6
2018-02-20T04:54:41.588Z,12.6
2018-02-20T04:55:41.272Z,13
2018-02-20T04:56:41.208Z,13.1
2018-02-20T04:57:41.092Z,12.9
2018-02-20T04:58:41.184Z,13.1
2018-02-20T04:59:41.044Z,12.7
2018-02-20T05:00:40.934Z,13.1
2018-02-20T05:01:40.985Z,12.7
2018-02-20T05:02:40.899Z,12.6
2018-02-20T05:03:41.330Z,13.1
2018-02-20T05:04:40.820Z,12.6
2018-02-20T05:05:40.604Z,13.1
2018-02-20T05:06:40.559Z,12.6
2018-02-20T05:07:40.548Z,12.9
2018-02-20T05:08:40.494Z,12.9
2018-02-20T05:09:40.425Z,13
2018-02-20T05:10:40.196Z,13
2018-02-20T05:11:40.438Z,12.7
2018-02-20T05:12:40.099Z,12.5
2018-02-20T05:13:40.154Z,13
2018-02-20T05:14:40.076Z,12.5
2018-02-20T05:15:39.943Z,13
2018-02-20T05:16:39.782Z,12.7
2018-02-20T05:17:39.875Z,12.6
2018-02-20T05:18:39.692Z,13.1
2018-02-20T05:19:39.723Z,12.6
2018-02-20T05:20:39.549Z,12.6
2018-02-20T05:21:39.618Z,13
2018-02-20T05:22:39.525Z,12.6
2018-02-20T05:23:39.349Z,13
2018-02-20T05:24:39.275Z,13
2018-02-20T05:25:39.166Z,12.5
2018-02-20T05:26:39.250Z,12.9
2018-02-20T05:27:39.140Z,12.6
2018-02-20T05:28:39.111Z,12.8
2018-02-20T05:29:39.036Z,13.1
2018-02-20T05:30:38.980Z,13.2
2018-02-20T05:31:38.843Z,13
2018-02-20T05:32:38.721Z,13.1
2018-02-20T05:33:38.657Z,12.8
2018-02-20T05:34:38.582Z,12.6
2018-02-20T05:35:38.530Z,13.1
2018-02-20T05:36:38.995Z,12.5
2018-02-20T05:37:38.483Z,12.7
2018-02-20T05:38:38.426Z,12.7
2018-02-20T05:39:38.547Z,13.1
2018-02-20T05:40:38.129Z,12.8
2018-02-20T05:41:38.120Z,12.9
2018-02-20T05:42:37.995Z,12.7
2018-02-20T05:43:37.967Z,13.1
2018-02-20T05:44:38.117Z,12.8
2018-02-20T05:45:37.829Z,12.6
2018-02-20T05:46:37.765Z,13
2018-02-20T05:47:37.696Z,12.4
2018-02-20T05:48:37.578Z,12.5
2018-02-20T05:49:37.564Z,13.2
2018-02-20T05:50:37.935Z,13.1
2018-02-20T05:51:37.399Z,12.7
2018-02-20T05:52:37.461Z,13.1
2018-02-20T05:53:37.674Z,12.9
2018-02-20T05:54:37.311Z,13
2018-02-20T05:55:37.140Z,13.1
2018-02-20T05:56:37.067Z,12.6
2018-02-20T05:57:37.238Z,13.1
2018-02-20T05:58:36.944Z,12.9
2018-02-20T05:59:36.929Z,12.6
2018-02-20T06:00:36.902Z,12.5
2018-02-20T06:01:37.012Z,12.8
2018-02-20T06:02:36.766Z,12.9
2018-02-20T06:03:36.877Z,12.4
2018-02-20T06:04:36.562Z,13
2018-02-20T06:05:36.573Z,13.1
2018-02-20T06:06:36.675Z,12.6
2018-02-20T06:07:36.403Z,12.4
2018-02-20T06:08:36.516Z,13.1
2018-02-20T06:09:36.590Z,12.6
2018-02-20T06:10:36.229Z,13.2
2018-02-20T06:11:36.037Z,12.6
2018-02-20T06:12:36.083Z,12.6
2018-02-20T06:13:36.000Z,13.1
2018-02-20T06:14:35.939Z,12.9
2018-02-20T06:15:35.958Z,13.1
2018-02-20T06:16:35.787Z,12.7
2018-02-20T06:17:35.668Z,12.6
2018-02-20T06:18:35.662Z,13.2
2018-02-20T06:19:35.488Z,12.9
2018-02-20T06:20:35.467Z,13.1
2018-02-20T06:21:35.401Z,13.1
2018-02-20T06:22:35.863Z,12.5
2018-02-20T06:23:35.210Z,12.9
2018-02-20T06:24:35.134Z,13
2018-02-20T06:25:35.072Z,12.9
2018-02-20T06:26:35.010Z,12.9
2018-02-20T06:27:35.222Z,12.6
2018-02-20T06:28:34.974Z,13.1
2018-02-20T06:29:34.922Z,12.6
2018-02-20T06:30:34.730Z,12.6
2018-02-20T06:31:34.795Z,13.2
2018-02-20T06:32:34.856Z,12.9
2018-02-20T06:33:34.626Z,12.6
2018-02-20T06:34:34.453Z,12.7
2018-02-20T06:35:34.339Z,13.2
2018-02-20T06:36:34.570Z,12.6
2018-02-20T06:37:34.352Z,12.6
2018-02-20T06:38:34.165Z,12.7
2018-02-20T06:39:34.218Z,13.1
2018-02-20T06:40:34.122Z,12.8
2018-02-20T06:41:34.016Z,13.1
2018-02-20T06:42:34.122Z,12.7
2018-02-20T06:43:33.831Z,12.7
2018-02-20T06:44:33.771Z,13.2
2018-02-20T06:45:33.687Z,13
2018-02-20T06:46:33.721Z,13
2018-02-20T06:47:33.526Z,12.6
2018-02-20T06:48:33.483Z,12.4
2018-02-20T06:49:33.406Z,12.4
2018-02-20T06:50:33.301Z,13.1
2018-02-20T06:51:33.384Z,13.2
2018-02-20T06:52:33.254Z,12.7
2018-02-20T06:53:33.138Z,12.5
2018-02-20T06:54:33.175Z,13.2
2018-02-20T06:55:33.590Z,12.9
2018-02-20T06:56:32.928Z,12.5
2018-02-20T06:57:33.043Z,12.7
2018-02-20T06:58:32.908Z,13.2
2018-02-20T06:59:32.771Z,13.1
2018-02-20T07:00:32.656Z,12.9
2018-02-20T07:01:32.883Z,12.7
2018-02-20T07:02:32.557Z,12.5
2018-02-20T07:03:32.708Z,12.8
2018-02-20T07:04:32.375Z,13.1
2018-02-20T07:05:32.412Z,13.1
2018-02-20T07:06:32.348Z,13.3
2018-02-20T07:07:32.321Z,13
2018-02-20T07:08:32.393Z,13.2
2018-02-20T07:09:32.337Z,12.6
2018-02-20T07:10:32.264Z,13.2
2018-02-20T07:11:32.148Z,12.9
2018-02-20T07:12:31.821Z,13.3
2018-02-20T07:13:32.047Z,13.3
2018-02-20T07:14:31.697Z,13.5
2018-02-20T07:15:31.931Z,12.9
2018-02-20T07:16:31.503Z,13.2
2018-02-20T07:17:31.474Z,13.5
2018-02-20T07:18:31.460Z,13.2
2018-02-20T07:19:31.326Z,13.6
2018-02-20T07:20:31.259Z,13.3
2018-02-20T07:21:31.155Z,13.7
2018-02-20T07:22:31.131Z,13.4
2018-02-20T07:23:31.174Z,13.7
2018-02-20T07:24:30.950Z,13.5
2018-02-20T07:25:30.928Z,13.7
2018-02-20T07:26:30.977Z,13.2
2018-02-20T07:27:31.078Z,13.9
2018-02-20T07:28:30.735Z,13.9
2018-02-20T07:29:30.614Z,13.3
2018-02-20T07:30:30.700Z,13.6
2018-02-20T07:31:30.634Z,13.3
2018-02-20T07:32:30.451Z,13.5
2018-02-20T07:33:30.327Z,13.4
2018-02-20T07:34:30.318Z,14
2018-02-20T07:35:30.259Z,13.4
2018-02-20T07:36:30.176Z,13.7
2018-02-20T07:37:30.091Z,13.3
2018-02-20T07:38:30.391Z,13.6
2018-02-20T07:39:29.976Z,14.1
2018-02-20T07:40:29.901Z,14.1
2018-02-20T07:41:29.963Z,13.4
2018-02-20T07:42:29.757Z,13.8
2018-02-20T07:43:29.705Z,13.9
2018-02-20T07:44:29.914Z,13.6
2018-02-20T07:45:29.841Z,13.3
2018-02-20T07:46:29.518Z,13.9
2018-02-20T07:47:29.613Z,14
2018-02-20T07:48:29.616Z,13.6
2018-02-20T07:49:29.563Z,13.7
2018-02-20T07:50:29.196Z,14
2018-02-20T07:51:29.161Z,14.5
2018-02-20T07:52:29.156Z,14
2018-02-20T07:53:29.282Z,14.4
2018-02-20T07:54:29.208Z,14.1
2018-02-20T07:55:29.443Z,14.5
2018-02-20T07:56:28.887Z,14.6
2018-02-20T07:57:28.719Z,14.2
2018-02-20T07:58:28.655Z,14.4
2018-02-20T07:59:28.828Z,14.7
2018-02-20T08:00:28.636Z,13.4
2018-02-20T08:01:28.559Z,14.4
2018-02-20T08:02:28.378Z,14.3
2018-02-20T08:03:28.309Z,14.3
2018-02-20T08:04:28.191Z,14.5
2018-02-20T08:05:28.203Z,14.1
2018-02-20T08:06:28.094Z,14.1
2018-02-20T08:07:28.029Z,14.1
2018-02-20T08:08:27.917Z,14.4
2018-02-20T08:09:27.886Z,14
2018-02-20T08:10:27.875Z,14.4
2018-02-20T08:11:27.966Z,14
2018-02-20T08:12:27.677Z,14.3
2018-02-20T08:13:27.771Z,14.3
2018-02-20T08:14:27.671Z,14
2018-02-20T08:15:27.472Z,14.1
2018-02-20T08:16:27.504Z,14.2
2018-02-20T08:17:27.700Z,14.3
2018-02-20T08:18:27.257Z,14.3
2018-02-20T08:19:27.158Z,14.7
2018-02-20T08:20:27.247Z,14.6
2018-02-20T08:21:27.156Z,14.7
2018-02-20T08:22:26.999Z,14.1
2018-02-20T08:23:27.244Z,14.4
2018-02-20T08:24:26.846Z,14.6
2018-02-20T08:25:26.822Z,14.5
2018-02-20T08:26:27.101Z,14.5
2018-02-20T08:27:26.761Z,14
2018-02-20T08:28:26.573Z,13.8
2018-02-20T08:29:26.599Z,14
2018-02-20T08:30:26.429Z,14.2
2018-02-20T08:31:26.377Z,14.1
2018-02-20T08:32:26.294Z,14.6
2018-02-20T08:33:26.649Z,14.4
2018-02-20T08:34:26.110Z,14.7
2018-02-20T08:35:26.329Z,14.3
2018-02-20T08:36:26.134Z,14.6
2018-02-20T08:37:26.072Z,13.8
2018-02-20T08:38:25.985Z,14.6
2018-02-20T08:39:25.931Z,14.6
2018-02-20T08:40:25.718Z,14.7
2018-02-20T08:41:25.690Z,14.2
2018-02-20T08:42:25.716Z,14.2
2018-02-20T08:43:25.822Z,14.2
2018-02-20T08:44:25.511Z,14.1
2018-02-20T08:45:25.696Z,13.8
2018-02-20T08:46:25.371Z,14.2
2018-02-20T08:47:25.377Z,14
2018-02-20T08:48:25.301Z,14.4
2018-02-20T08:49:25.410Z,14.2
2018-02-20T08:50:25.172Z,14.3
2018-02-20T08:51:24.936Z,14
2018-02-20T08:52:24.928Z,14.3
2018-02-20T08:53:24.801Z,14.4
2018-02-20T08:54:24.793Z,14.3
2018-02-20T08:55:24.864Z,14.4
2018-02-20T08:56:24.945Z,14.5
2018-02-20T08:57:24.916Z,14.7
2018-02-20T08:58:24.605Z,14.4
2018-02-20T08:59:24.436Z,14.3
2018-02-20T09:00:24.408Z,14.3
2018-02-20T09:01:24.340Z,14.4
2018-02-20T09:02:24.174Z,14.2
2018-02-20T09:03:24.160Z,14.3
2018-02-20T09:04:24.052Z,14.5
2018-02-20T09:05:24.007Z,14.3
2018-02-20T09:06:23.944Z,14
2018-02-20T09:07:23.883Z,14.5
2018-02-20T09:08:23.814Z,14
2018-02-20T09:09:23.747Z,14.4
2018-02-20T09:10:23.632Z,14.7
2018-02-20T09:11:23.613Z,14.5
2018-02-20T09:12:23.529Z,14
2018-02-20T09:13:23.598Z,14.7
2018-02-20T09:14:23.692Z,14.1
2018-02-20T09:15:23.280Z,14
2018-02-20T09:16:23.245Z,14.7
2018-02-20T09:17:23.184Z,14
2018-02-20T09:18:23.073Z,14.1
2018-02-20T09:19:23.627Z,14.4
2018-02-20T09:20:22.977Z,13.8
2018-02-20T09:21:23.067Z,14.2
2018-02-20T09:22:22.832Z,14.6
2018-02-20T09:23:22.812Z,14.1
2018-02-20T09:24:22.720Z,14.5
2018-02-20T09:25:22.737Z,14.5
2018-02-20T09:26:22.779Z,14.4
2018-02-20T09:27:22.470Z,14.7
2018-02-20T09:28:22.391Z,14
2018-02-20T09:29:22.472Z,14.6
2018-02-20T09:30:22.392Z,14.2
2018-02-20T09:31:22.266Z,14.3
2018-02-20T09:32:22.147Z,14.1
2018-02-20T09:33:22.192Z,14.3
2018-02-20T09:34:22.070Z,14
2018-02-20T09:35:21.915Z,14.1
2018-02-20T09:36:21.842Z,14
2018-02-20T09:37:22.090Z,14.3
2018-02-20T09:38:21.732Z,14.2
2018-02-20T09:39:21.671Z,14.7
2018-02-20T09:40:21.963Z,14.3
2018-02-20T09:41:21.625Z,14.6
2018-02-20T09:42:21.521Z,14.4
2018-02-20T09:43:21.489Z,14
2018-02-20T09:44:21.330Z,14.6
2018-02-20T09:45:21.204Z,14.7
2018-02-20T09:46:21.181Z,14.2
2018-02-20T09:47:21.122Z,14.3
2018-02-20T09:48:21.035Z,14.3
2018-02-20T09:49:20.976Z,14.2
2018-02-20T09:50:20.895Z,14.7
2018-02-20T09:51:20.994Z,14.4
2018-02-20T09:52:20.871Z,14.1
2018-02-20T09:53:20.691Z,14
2018-02-20T09:54:20.675Z,14.3
2018-02-20T09:55:20.851Z,14
2018-02-20T09:56:20.489Z,14
2018-02-20T09:57:20.649Z,14
2018-02-20T09:58:20.396Z,13.9
2018-02-20T09:59:20.274Z,14.5
2018-02-20T10:00:20.208Z,14
2018-02-20T10:01:20.244Z,14.6
2018-02-20T10:02:20.034Z,14.7
2018-02-20T10:03:20.113Z,14
2018-02-20T10:04:20.173Z,13.9
2018-02-20T10:05:19.974Z,14.4
2018-02-20T10:06:20.084Z,14
2018-02-20T10:07:19.813Z,14.1
2018-02-20T10:08:19.647Z,13.8
2018-02-20T10:09:19.885Z,14.6
2018-02-20T10:10:19.620Z,14.2
2018-02-20T10:11:19.448Z,14.1
2018-02-20T10:12:19.375Z,13.9
2018-02-20T10:13:19.549Z,14.4
2018-02-20T10:14:19.244Z,14.4
2018-02-20T10:15:19.240Z,14.4
2018-02-20T10:16:19.406Z,14.7
2018-02-20T10:17:19.027Z,14.3
2018-02-20T10:18:18.965Z,14
2018-02-20T10:19:18.893Z,14
2018-02-20T10:20:18.873Z,14.1
2018-02-20T10:21:19.062Z,14.3
2018-02-20T10:22:18.694Z,14.1
2018-02-20T10:23:18.630Z,14.1
2018-02-20T10:24:18.539Z,14
2018-02-20T10:25:18.487Z,14.4
2018-02-20T10:26:18.530Z,14
2018-02-20T10:27:18.350Z,14.7
2018-02-20T10:28:18.275Z,14.3
2018-02-20T10:29:18.209Z,14.2
2018-02-20T10:30:18.146Z,14.5
2018-02-20T10:31:18.059Z,14.4
2018-02-20T10:32:18.088Z,14
2018-02-20T10:33:18.068Z,14.6
2018-02-20T10:34:17.855Z,14.2
2018-02-20T10:35:17.791Z,14.5
2018-02-20T10:36:18.134Z,14.4
2018-02-20T10:37:17.696Z,14.2
2018-02-20T10:38:17.686Z,14.2
2018-02-20T10:39:17.509Z,14.7
2018-02-20T10:40:17.559Z,14.2
2018-02-20T10:41:17.675Z,14.3
2018-02-20T10:42:17.265Z,14.5
2018-02-20T10:43:17.356Z,14.2
2018-02-20T10:44:17.121Z,14.6
2018-02-20T10:45:17.090Z,14.5
2018-02-20T10:46:17.041Z,13.9
2018-02-20T10:47:17.247Z,13.8
2018-02-20T10:48:17.188Z,14.3
2018-02-20T10:49:16.786Z,14.4
2018-02-20T10:50:16.860Z,14.4
2018-02-20T10:51:16.687Z,14.6
2018-02-20T10:52:16.617Z,14.1
2018-02-20T10:53:16.786Z,14.1
2018-02-20T10:54:16.529Z,14.3
2018-02-20T10:55:16.478Z,14.4
2018-02-20T10:56:16.363Z,14.6
2018-02-20T10:57:16.386Z,14.3
2018-02-20T10:58:16.300Z,14.2
2018-02-20T10:59:16.418Z,14.2
2018-02-20T11:00:16.063Z,13.9
2018-02-20T11:01:16.033Z,13.8
2018-02-20T11:02:15.924Z,14.3
2018-02-20T11:03:15.983Z,14.1
2018-02-20T11:04:15.753Z,14.2
2018-02-20T11:05:15.827Z,14.4
2018-02-20T11:06:15.764Z,14.7
2018-02-20T11:07:15.861Z,14.4
2018-02-20T11:08:15.506Z,14.4
2018-02-20T11:09:15.837Z,14.4
2018-02-20T11:10:15.423Z,14.1
2018-02-20T11:11:15.307Z,14.5
2018-02-20T11:12:15.238Z,14.7
2018-02-20T11:13:15.203Z,14.5
2018-02-20T11:14:15.045Z,14
2018-02-20T11:15:15.036Z,14.5
2018-02-20T11:16:15.281Z,14
2018-02-20T11:17:14.988Z,14.7
2018-02-20T11:18:14.821Z,14.2
2018-02-20T11:19:14.872Z,14.1
2018-02-20T11:20:14.769Z,13.9
2018-02-20T11:21:14.606Z,14.2
2018-02-20T11:22:14.642Z,14.4
2018-02-20T11:23:14.467Z,14.4
2018-02-20T11:24:14.509Z,13.9
2018-02-20T11:25:14.339Z,14.6
2018-02-20T11:26:14.306Z,14.4
2018-02-20T11:27:14.248Z,14.1
2018-02-20T11:28:14.132Z,14.4
2018-02-20T11:29:14.162Z,14
2018-02-20T11:30:14.089Z,14.4
2018-02-20T11:31:13.869Z,14.5
2018-02-20T11:32:13.957Z,14.2
2018-02-20T11:33:13.893Z,14.7
2018-02-20T11:34:13.810Z,13.9
2018-02-20T11:35:13.709Z,14
2018-02-20T11:36:13.537Z,14.1
2018-02-20T11:37:13.504Z,14.4
2018-02-20T11:38:13.554Z,14.5
2018-02-20T11:39:13.359Z,14.7
2018-02-20T11:40:13.403Z,14
2018-02-20T11:41:13.222Z,14.6
2018-02-20T11:42:13.486Z,14.2
2018-02-20T11:43:13.080Z,14.3
2018-02-20T11:44:13.127Z,14.2
2018-02-20T11:45:12.998Z,14.5
2018-02-20T11:46:12.984Z,13.9
2018-02-20T11:47:12.761Z,14.7
2018-02-20T11:48:12.966Z,14.7
2018-02-20T11:49:12.793Z,14.1
2018-02-20T11:50:12.707Z,14.6
2018-02-20T11:51:12.638Z,14.2
2018-02-20T11:52:12.728Z,14
2018-02-20T11:53:12.656Z,14.6
2018-02-20T11:54:44.422Z,14.7
2018-02-20T11:55:12.199Z,14.5
2018-02-20T11:56:12.367Z,14
2018-02-20T11:57:12.086Z,14.4
2018-02-20T11:58:12.220Z,14
2018-02-20T11:59:12.240Z,14.1
2018-02-20T12:00:12.125Z,14.2
2018-02-20T12:01:11.768Z,14.3
2018-02-20T12:02:11.699Z,14.5
2018-02-20T12:03:11.834Z,13.9
2018-02-20T12:04:11.495Z,14.6
2018-02-20T12:05:11.753Z,14.2
2018-02-20T12:06:11.337Z,14.5
2018-02-20T12:07:11.297Z,14.3
2018-02-20T12:08:11.330Z,14.4
2018-02-20T12:09:11.145Z,14.2
2018-02-20T12:10:11.065Z,14
2018-02-20T12:11:11.274Z,14
2018-02-20T12:12:10.978Z,14.3
2018-02-20T12:13:10.833Z,14.2
2018-02-20T12:14:10.800Z,13.8
2018-02-20T12:15:10.985Z,14
2018-02-20T12:16:10.592Z,14.7
2018-02-20T12:17:10.617Z,14
2018-02-20T12:18:10.550Z,14.5
2018-02-20T12:19:10.601Z,14.3
2018-02-20T12:20:10.285Z,14.1
2018-02-20T12:21:10.203Z,14.7
2018-02-20T12:22:10.240Z,14.2
2018-02-20T12:23:10.257Z,14.5
2018-02-20T12:24:09.971Z,14.2
2018-02-20T12:25:09.843Z,14.1
2018-02-20T12:26:09.814Z,14.1
2018-02-20T12:27:09.776Z,13.8
2018-02-20T12:28:09.866Z,14
2018-02-20T12:29:09.625Z,14.4
2018-02-20T12:30:09.500Z,14.5
2018-02-20T12:31:09.480Z,14.3
2018-02-20T12:32:09.448Z,14.3
2018-02-20T12:33:09.255Z,14.2
2018-02-20T12:34:09.180Z,14.7
2018-02-20T12:35:09.231Z,14.6
2018-02-20T12:36:08.987Z,14
2018-02-20T12:37:08.952Z,13.9
2018-02-20T12:38:08.918Z,14.4
2018-02-20T12:39:08.893Z,14.4
2018-02-20T12:40:09.000Z,14
2018-02-20T12:41:08.629Z,14.2
2018-02-20T12:42:08.571Z,14.6
2018-02-20T12:43:08.855Z,14.4
2018-02-20T12:44:08.504Z,14
2018-02-20T12:45:08.332Z,14.1
2018-02-20T12:46:08.242Z,14
2018-02-20T12:47:08.154Z,14.7
2018-02-20T12:48:08.058Z,14.4
2018-02-20T12:49:07.997Z,14.6
2018-02-20T12:50:08.035Z,14.1
2018-02-20T12:51:07.865Z,14.2
2018-02-20T12:52:07.763Z,14.6
2018-02-20T12:53:07.647Z,14.4
2018-02-20T12:54:07.624Z,14.6
2018-02-20T12:55:07.792Z,13.8
2018-02-20T12:56:07.454Z,14.1
2018-02-20T12:57:07.663Z,14.5
2018-02-20T12:58:07.249Z,14.2
2018-02-20T12:59:07.230Z,13.9
2018-02-20T13:00:07.148Z,13.5
2018-02-20T13:01:07.053Z,14.5
2018-02-20T13:02:07.089Z,14.6
2018-02-20T13:03:06.887Z,14
2018-02-20T13:04:06.958Z,14.7
2018-02-20T13:05:06.747Z,14.6
2018-02-20T13:06:06.666Z,14.5
2018-02-20T13:07:06.700Z,14
2018-02-20T13:08:06.469Z,14.5
2018-02-20T13:09:06.483Z,14.6
2018-02-20T13:10:06.920Z,14.3
2018-02-20T13:11:06.277Z,14.5
2018-02-20T13:12:06.318Z,14.5
2018-02-20T13:13:06.074Z,14.7
2018-02-20T13:14:06.332Z,14.1
2018-02-20T13:15:05.965Z,13.8
2018-02-20T13:16:05.897Z,14.5
2018-02-20T13:17:05.820Z,13.8
2018-02-20T13:18:05.727Z,14.2
2018-02-20T13:19:05.603Z,14.1
2018-02-20T13:20:05.560Z,14.3
2018-02-20T13:21:05.497Z,14.4
2018-02-20T13:22:05.417Z,14.4
2018-02-20T13:23:05.440Z,13.8
2018-02-20T13:24:05.262Z,14